createdAt,value
2017-10-26T00:00:50.978Z,23.90
2017-10-26T00:04:00.865Z,22.55
2017-10-26T00:07:10.914Z,23.12
2017-10-26T00:10:20.998Z,23.05
2017-10-26T00:13:30.997Z,22.15
2017-10-26T00:16:40.953Z,26.87
2017-10-26T00:19:50.670Z,25.25
2017-10-26T00:23:00.880Z,23.30
2017-10-26T00:26:10.663Z,23.92
2017-10-26T00:29:20.985Z,24.95
2017-10-26T00:32:31.062Z,24.85
2017-10-26T00:35:41.024Z,22.52
2017-10-26T00:38:50.999Z,23.87
2017-10-26T00:42:01.081Z,24.50
2017-10-26T00:45:11.453Z,25.10
2017-10-26T00:48:21.690Z,22.62
2017-10-26T00:51:31.732Z,23.10
2017-10-26T00:54:43.122Z,24.15
2017-10-26T00:57:53.647Z,23.20
2017-10-26T01:01:03.633Z,24.92
2017-10-26T01:04:14.400Z,21.85
2017-10-26T01:07:24.511Z,21.27
2017-10-26T01:10:34.462Z,23.73
2017-10-26T01:13:44.748Z,21.90
2017-10-26T01:16:54.657Z,24.05
2017-10-26T01:20:04.154Z,21.90
2017-10-26T01:23:14.893Z,23.35
2017-10-26T01:26:24.315Z,21.80
2017-10-26T01:29:34.438Z,22.42
2017-10-26T01:32:44.364Z,20.23
2017-10-26T01:35:54.096Z,21.27
2017-10-26T01:39:03.713Z,22.65
2017-10-26T01:42:14.015Z,22.35
2017-10-26T01:45:23.689Z,21.85
2017-10-26T01:48:33.742Z,23.58
2017-10-26T01:51:43.688Z,22.80
2017-10-26T01:54:53.663Z,22.73
2017-10-26T01:58:03.943Z,21.27
2017-10-26T02:01:13.925Z,23.38
2017-10-26T02:04:24.176Z,27.33
2017-10-26T02:07:34.503Z,23.62
2017-10-26T02:10:45.328Z,25.48
2017-10-26T02:13:54.880Z,21.62
2017-10-26T02:17:05.042Z,22.60
2017-10-26T02:20:15.235Z,21.20
2017-10-26T02:23:25.150Z,21.95
2017-10-26T02:26:35.154Z,24.67
2017-10-26T02:29:56.648Z,23.20
2017-10-26T02:33:06.631Z,25.37
2017-10-26T02:36:16.746Z,24.35
2017-10-26T02:39:27.350Z,26.05
2017-10-26T02:42:37.707Z,24.67
2017-10-26T02:45:47.588Z,23.23
2017-10-26T02:48:57.826Z,24.00
2017-10-26T02:52:08.692Z,25.83
2017-10-26T02:55:19.323Z,23.80
2017-10-26T02:58:29.515Z,22.90
2017-10-26T03:01:39.407Z,23.33
2017-10-26T03:04:49.409Z,20.92
2017-10-26T03:07:59.844Z,22.05
2017-10-26T03:11:09.832Z,22.05
2017-10-26T03:14:19.971Z,25.80
2017-10-26T03:17:29.797Z,23.73
2017-10-26T03:20:39.774Z,22.00
2017-10-26T03:23:49.840Z,24.27
2017-10-26T03:27:00.130Z,25.70
2017-10-26T03:30:10.439Z,25.05
2017-10-26T03:33:20.569Z,24.65
2017-10-26T03:36:31.579Z,24.00
2017-10-26T03:39:42.025Z,27.13
2017-10-26T03:42:52.347Z,25.58
2017-10-26T03:46:04.406Z,22.62
2017-10-26T03:49:14.909Z,24.80
2017-10-26T03:52:24.731Z,23.65
2017-10-26T03:55:34.917Z,25.80
2017-10-26T03:58:45.286Z,26.00
2017-10-26T04:01:55.390Z,24.37
2017-10-26T04:05:06.006Z,23.62
2017-10-26T04:08:15.958Z,26.60
2017-10-26T04:11:25.820Z,27.30
2017-10-26T04:14:35.698Z,25.73
2017-10-26T04:17:45.795Z,22.27
2017-10-26T04:20:55.751Z,25.52
2017-10-26T04:24:06.153Z,24.75
2017-10-26T04:27:17.444Z,26.35
2017-10-26T04:30:27.427Z,24.65
2017-10-26T04:33:36.945Z,25.77
2017-10-26T04:36:47.435Z,28.15
2017-10-26T04:39:57.998Z,25.27
2017-10-26T04:43:07.825Z,24.77
2017-10-26T04:46:18.028Z,22.95
2017-10-26T04:49:28.781Z,23.73
2017-10-26T04:52:38.831Z,26.23
2017-10-26T04:55:48.949Z,24.20
2017-10-26T04:58:59.678Z,26.80
2017-10-26T05:02:10.792Z,29.00
2017-10-26T05:05:21.399Z,29.52
2017-10-26T05:08:31.549Z,25.17
2017-10-26T05:11:42.221Z,24.75
2017-10-26T05:14:52.239Z,26.20
2017-10-26T05:18:02.802Z,28.98
2017-10-26T05:21:12.822Z,24.73
2017-10-26T05:24:23.585Z,28.35
2017-10-26T05:27:34.180Z,24.70
2017-10-26T05:30:45.483Z,25.98
2017-10-26T05:33:55.191Z,27.15
2017-10-26T05:37:05.241Z,27.70
2017-10-26T05:40:15.619Z,26.87
2017-10-26T05:43:26.742Z,24.67
2017-10-26T05:46:38.219Z,25.30
2017-10-26T05:49:48.714Z,26.00
2017-10-26T05:52:59.518Z,26.30
2017-10-26T05:56:10.262Z,24.42
2017-10-26T05:59:21.237Z,28.05
2017-10-26T06:02:31.447Z,26.00
2017-10-26T06:05:41.538Z,30.15
2017-10-26T06:08:51.549Z,25.15
2017-10-26T06:12:01.514Z,26.83
2017-10-26T06:15:11.442Z,27.48
2017-10-26T06:18:21.822Z,26.80
2017-10-26T06:21:33.417Z,25.95
2017-10-26T06:24:43.702Z,25.42
2017-10-26T06:27:53.881Z,24.23
2017-10-26T06:31:04.667Z,24.90
2017-10-26T06:34:14.995Z,28.08
2017-10-26T06:37:24.801Z,26.87
2017-10-26T06:40:34.987Z,25.42
2017-10-26T06:43:45.634Z,28.10
2017-10-26T06:46:57.018Z,26.83
2017-10-26T06:50:07.350Z,27.15
2017-10-26T06:53:17.451Z,29.27
2017-10-26T06:56:27.947Z,29.80
2017-10-26T06:59:38.254Z,31.77
2017-10-26T07:02:48.140Z,32.90
2017-10-26T07:05:58.192Z,26.05
2017-10-26T07:09:08.274Z,28.83
2017-10-26T07:12:18.414Z,28.85
2017-10-26T07:15:28.403Z,28.52
2017-10-26T07:18:38.363Z,33.78
2017-10-26T07:21:48.386Z,31.50
2017-10-26T07:24:58.318Z,29.85
2017-10-26T07:28:08.110Z,26.55
2017-10-26T07:31:18.093Z,29.58
2017-10-26T07:34:27.991Z,28.35
2017-10-26T07:37:39.417Z,31.17
2017-10-26T07:40:49.354Z,32.60
2017-10-26T07:43:59.534Z,27.25
2017-10-26T07:47:09.419Z,27.52
2017-10-26T07:50:19.035Z,30.55
2017-10-26T07:53:29.225Z,29.30
2017-10-26T07:56:39.103Z,31.08
2017-10-26T07:59:48.715Z,27.98
2017-10-26T08:02:59.322Z,33.25
2017-10-26T08:06:09.958Z,27.10
2017-10-26T08:09:20.420Z,29.12
2017-10-26T08:12:30.639Z,26.50
2017-10-26T08:15:40.510Z,31.00
2017-10-26T08:18:50.537Z,28.40
2017-10-26T08:22:01.114Z,30.05
2017-10-26T08:25:10.481Z,28.15
2017-10-26T08:28:20.928Z,29.48
2017-10-26T08:31:30.997Z,27.65
2017-10-26T08:34:40.959Z,29.27
2017-10-26T08:37:50.582Z,29.17
2017-10-26T08:41:01.586Z,32.17
2017-10-26T08:44:13.075Z,30.05
2017-10-26T08:47:23.590Z,30.25
2017-10-26T08:50:33.143Z,25.52
2017-10-26T08:53:43.128Z,27.25
2017-10-26T08:56:54.172Z,27.85
2017-10-26T09:00:03.525Z,33.72
2017-10-26T09:03:14.262Z,29.63
2017-10-26T09:06:24.678Z,29.65
2017-10-26T09:09:34.572Z,28.55
2017-10-26T09:12:44.742Z,21.65
2017-10-26T09:15:53.972Z,27.85
2017-10-26T09:19:03.472Z,27.77
2017-10-26T09:22:13.566Z,23.42
2017-10-26T09:25:24.947Z,25.85
2017-10-26T09:28:35.677Z,28.15
2017-10-26T09:31:45.862Z,26.40
2017-10-26T09:34:55.886Z,25.83
2017-10-26T09:38:06.219Z,22.00
2017-10-26T09:41:16.581Z,26.40
2017-10-26T09:44:26.977Z,23.27
2017-10-26T09:47:36.672Z,24.37
2017-10-26T09:50:46.694Z,24.63
2017-10-26T09:53:56.600Z,30.30
2017-10-26T09:57:06.484Z,26.50
2017-10-26T10:00:16.615Z,21.42
2017-10-26T10:03:26.988Z,27.30
2017-10-26T10:06:36.971Z,26.77
2017-10-26T10:09:46.570Z,25.25
2017-10-26T10:12:57.428Z,27.10
2017-10-26T10:16:07.525Z,29.60
2017-10-26T10:19:17.694Z,28.35
2017-10-26T10:22:27.466Z,25.75
2017-10-26T10:25:38.221Z,24.02
2017-10-26T10:28:49.538Z,25.10
2017-10-26T10:31:59.751Z,23.77
2017-10-26T10:35:09.880Z,28.77
2017-10-26T10:38:20.089Z,26.40
2017-10-26T10:41:30.293Z,27.67
2017-10-26T10:44:40.439Z,26.73
2017-10-26T10:47:51.218Z,28.05
2017-10-26T10:51:01.702Z,28.20
2017-10-26T10:54:11.656Z,24.67
2017-10-26T10:57:22.783Z,25.65
2017-10-26T11:00:33.655Z,23.33
2017-10-26T11:03:44.025Z,26.10
2017-10-26T11:06:54.362Z,21.45
2017-10-26T11:10:04.106Z,23.23
2017-10-26T11:13:14.214Z,29.02
2017-10-26T11:16:24.549Z,24.75
2017-10-26T11:19:34.782Z,25.55
2017-10-26T11:22:44.518Z,22.87
2017-10-26T11:25:54.965Z,27.75
2017-10-26T11:29:04.759Z,22.45
2017-10-26T11:32:15.786Z,25.02
2017-10-26T11:35:25.236Z,22.40
2017-10-26T11:38:35.471Z,23.00
2017-10-26T11:41:45.732Z,28.75
2017-10-26T11:44:56.219Z,24.05
2017-10-26T11:48:06.269Z,21.15
2017-10-26T11:51:17.047Z,27.02
2017-10-26T11:54:27.225Z,26.73
2017-10-26T11:57:37.101Z,21.50
2017-10-26T12:00:46.949Z,24.17
2017-10-26T12:03:57.452Z,21.83
2017-10-26T12:07:07.084Z,22.77
2017-10-26T12:10:17.422Z,23.25
2017-10-26T12:13:28.767Z,21.80
2017-10-26T12:16:39.068Z,23.60
2017-10-26T12:19:49.494Z,22.17
2017-10-26T12:22:59.655Z,23.65
2017-10-26T12:26:10.150Z,21.37
2017-10-26T12:29:19.825Z,22.42
2017-10-26T12:32:29.900Z,22.58
2017-10-26T12:35:40.230Z,22.55
2017-10-26T12:38:49.856Z,25.85
2017-10-26T12:41:59.286Z,22.85
2017-10-26T12:45:09.601Z,22.15
2017-10-26T12:48:19.093Z,23.85
2017-10-26T12:51:28.720Z,23.08
2017-10-26T12:54:38.254Z,22.35
2017-10-26T12:57:47.760Z,22.75
2017-10-26T13:00:57.265Z,20.37
2017-10-26T13:04:07.463Z,20.73
2017-10-26T13:07:17.875Z,19.70
2017-10-26T13:10:28.252Z,20.88
2017-10-26T13:13:38.047Z,20.58
2017-10-26T13:16:48.024Z,20.02
2017-10-26T13:19:57.899Z,20.75
2017-10-26T13:23:07.958Z,16.83
2017-10-26T13:26:18.227Z,16.42
2017-10-26T13:29:28.542Z,17.50
2017-10-26T13:32:38.814Z,19.50
2017-10-26T13:35:49.706Z,18.33
2017-10-26T13:39:00.034Z,19.42
2017-10-26T13:42:10.261Z,19.35
2017-10-26T13:45:20.938Z,20.00
2017-10-26T13:48:30.926Z,17.70
2017-10-26T13:51:40.866Z,19.23
2017-10-26T13:54:50.970Z,18.58
2017-10-26T13:58:01.078Z,19.33
2017-10-26T14:01:11.029Z,20.58
2017-10-26T14:04:21.363Z,21.17
2017-10-26T14:07:31.405Z,19.50
2017-10-26T14:10:41.202Z,20.60
2017-10-26T14:13:51.888Z,27.35
2017-10-26T14:17:01.633Z,23.73
2017-10-26T14:20:12.277Z,18.65
2017-10-26T14:23:22.665Z,21.55
2017-10-26T14:26:31.910Z,21.17
2017-10-26T14:29:42.353Z,18.77
2017-10-26T14:32:52.427Z,20.27
2017-10-26T14:36:02.377Z,19.80
2017-10-26T14:39:13.294Z,18.70
2017-10-26T14:42:23.618Z,19.33
2017-10-26T14:45:34.178Z,20.30
2017-10-26T14:48:45.039Z,17.42
2017-10-26T14:51:55.131Z,16.75
2017-10-26T14:55:05.531Z,16.62
2017-10-26T14:58:15.612Z,17.33
2017-10-26T15:01:26.447Z,17.65
2017-10-26T15:04:36.846Z,17.75
2017-10-26T15:07:47.126Z,12.98
2017-10-26T15:10:58.178Z,16.55
2017-10-26T15:14:08.164Z,17.40
2017-10-26T15:17:18.600Z,15.88
2017-10-26T15:20:29.430Z,14.20
2017-10-26T15:23:40.018Z,16.73
2017-10-26T15:26:50.733Z,14.65
2017-10-26T15:30:01.142Z,16.87
2017-10-26T15:33:11.284Z,15.68
2017-10-26T15:36:21.732Z,13.95
2017-10-26T15:39:31.730Z,17.35
2017-10-26T15:42:41.784Z,14.80
2017-10-26T15:45:51.923Z,16.08
2017-10-26T15:49:01.937Z,16.17
2017-10-26T15:52:11.833Z,15.43
2017-10-26T15:55:22.129Z,15.75
2017-10-26T15:58:32.097Z,14.43
2017-10-26T16:01:43.173Z,14.87
2017-10-26T16:04:53.558Z,15.35
2017-10-26T16:08:04.038Z,15.25
2017-10-26T16:11:13.935Z,16.95
2017-10-26T16:14:25.647Z,15.40
2017-10-26T16:17:36.746Z,15.77
2017-10-26T16:20:47.035Z,15.32
2017-10-26T16:23:57.059Z,14.50
2017-10-26T16:27:07.170Z,14.32
2017-10-26T16:30:17.176Z,13.23
2017-10-26T16:33:28.089Z,15.10
2017-10-26T16:36:38.315Z,15.23
2017-10-26T16:39:49.065Z,13.70
2017-10-26T16:42:59.186Z,15.45
2017-10-26T16:46:09.292Z,15.15
2017-10-26T16:49:19.300Z,14.98
2017-10-26T16:52:29.838Z,16.92
2017-10-26T16:55:40.216Z,21.33
2017-10-26T16:58:50.358Z,24.55
2017-10-26T17:02:01.473Z,23.80
2017-10-26T17:05:11.486Z,21.00
2017-10-26T17:08:21.473Z,25.27
2017-10-26T17:11:31.429Z,21.17
2017-10-26T17:14:41.463Z,25.92
2017-10-26T17:17:51.249Z,22.75
2017-10-26T17:21:01.269Z,18.60
2017-10-26T17:24:11.246Z,18.12
2017-10-26T17:27:21.147Z,15.68
2017-10-26T17:30:31.245Z,15.90
2017-10-26T17:33:41.770Z,14.02
2017-10-26T17:36:52.534Z,15.00
2017-10-26T17:40:02.791Z,15.45
2017-10-26T17:43:12.907Z,16.48
2017-10-26T17:46:23.042Z,16.75
2017-10-26T17:49:33.786Z,16.45
2017-10-26T17:52:43.916Z,17.23
2017-10-26T17:55:54.232Z,17.55
2017-10-26T17:59:04.917Z,18.55
2017-10-26T18:02:15.065Z,18.87
2017-10-26T18:05:25.769Z,22.58
2017-10-26T18:08:36.234Z,27.95
2017-10-26T18:11:46.198Z,22.40
2017-10-26T18:14:56.361Z,22.42
2017-10-26T18:18:06.450Z,21.65
2017-10-26T18:21:16.432Z,20.52
2017-10-26T18:24:26.441Z,17.62
2017-10-26T18:27:37.241Z,24.23
2017-10-26T18:30:48.053Z,20.45
2017-10-26T18:33:58.590Z,20.00
2017-10-26T18:37:08.717Z,24.10
2017-10-26T18:40:19.031Z,21.08
2017-10-26T18:43:29.230Z,19.90
2017-10-26T18:46:39.613Z,18.98
2017-10-26T18:49:49.711Z,18.40
2017-10-26T18:52:59.749Z,19.23
2017-10-26T18:56:10.248Z,19.58
2017-10-26T18:59:20.472Z,19.80
2017-10-26T19:02:30.430Z,22.10
2017-10-26T19:05:40.667Z,23.67
2017-10-26T19:08:50.715Z,22.90
2017-10-26T19:12:01.386Z,22.52
2017-10-26T19:15:12.037Z,24.95
2017-10-26T19:18:22.087Z,21.83
2017-10-26T19:21:32.287Z,22.50
2017-10-26T19:24:42.293Z,21.85
2017-10-26T19:27:52.287Z,21.92
2017-10-26T19:31:02.289Z,23.05
2017-10-26T19:34:12.212Z,28.95
2017-10-26T19:37:22.920Z,23.02
2017-10-26T19:40:33.264Z,24.60
2017-10-26T19:43:44.038Z,23.12
2017-10-26T19:46:54.142Z,24.87
2017-10-26T19:50:04.969Z,25.00
2017-10-26T19:53:15.347Z,20.75
2017-10-26T19:56:25.934Z,23.42
2017-10-26T19:59:37.227Z,22.75
2017-10-26T20:02:48.609Z,24.20
2017-10-26T20:05:58.978Z,23.83
2017-10-26T20:09:09.333Z,20.92
2017-10-26T20:12:19.409Z,19.20
2017-10-26T20:15:29.371Z,20.70
2017-10-26T20:18:39.337Z,25.08
2017-10-26T20:21:49.507Z,23.20
2017-10-26T20:24:59.538Z,22.00
2017-10-26T20:28:09.594Z,20.08
2017-10-26T20:31:19.774Z,27.80
2017-10-26T20:34:29.675Z,22.15
2017-10-26T20:37:39.659Z,19.92
2017-10-26T20:40:49.645Z,25.20
2017-10-26T20:43:59.693Z,22.02
2017-10-26T20:47:09.698Z,25.17
2017-10-26T20:50:25.115Z,24.10
2017-10-26T20:53:40.942Z,25.73
2017-10-26T20:56:58.022Z,23.83
2017-10-26T21:00:15.056Z,26.77
2017-10-26T21:03:31.365Z,25.77
2017-10-26T21:06:41.736Z,22.58
2017-10-26T21:09:51.811Z,23.38
2017-10-26T21:13:07.830Z,20.15
2017-10-26T21:16:17.675Z,27.10
2017-10-26T21:19:27.632Z,26.30
2017-10-26T21:22:38.337Z,25.08
2017-10-26T21:25:48.946Z,24.55
2017-10-26T21:28:59.064Z,23.95
2017-10-26T21:32:10.098Z,22.77
2017-10-26T21:35:20.547Z,21.17
2017-10-26T21:38:31.003Z,23.83
2017-10-26T21:41:40.915Z,19.65
2017-10-26T21:44:51.042Z,22.87
2017-10-26T21:48:01.099Z,23.42
2017-10-26T21:51:11.137Z,26.15
2017-10-26T21:54:21.249Z,23.70
2017-10-26T21:57:31.269Z,26.50
2017-10-26T22:00:41.681Z,22.48
2017-10-26T22:03:52.312Z,24.37
2017-10-26T22:07:02.287Z,22.52
2017-10-26T22:10:13.175Z,28.27
2017-10-26T22:13:23.367Z,25.00
2017-10-26T22:16:33.687Z,21.62
2017-10-26T22:19:45.023Z,27.25
2017-10-26T22:22:54.805Z,25.08
2017-10-26T22:26:05.771Z,25.95
2017-10-26T22:29:15.610Z,21.45
2017-10-26T22:32:26.055Z,20.08
2017-10-26T22:35:36.132Z,19.45
2017-10-26T22:38:46.077Z,26.15
2017-10-26T22:41:56.565Z,23.30
2017-10-26T22:45:06.631Z,24.33
2017-10-26T22:48:17.263Z,26.73
2017-10-26T22:51:27.995Z,26.15
2017-10-26T22:54:38.447Z,22.37
2017-10-26T22:57:48.421Z,23.65
2017-10-26T23:00:58.429Z,26.35
2017-10-26T23:04:09.170Z,24.92
2017-10-26T23:07:19.494Z,19.95
2017-10-26T23:10:30.426Z,19.05
2017-10-26T23:13:41.106Z,24.67
2017-10-26T23:16:52.046Z,24.10
2017-10-26T23:20:02.809Z,21.60
2017-10-26T23:23:12.698Z,23.73
2017-10-26T23:26:23.047Z,26.70
2017-10-26T23:29:33.019Z,18.98
2017-10-26T23:32:43.824Z,21.48
2017-10-26T23:35:54.219Z,18.45
2017-10-26T23:39:04.429Z,21.92
2017-10-26T23:42:14.720Z,20.80
2017-10-26T23:45:25.585Z,21.35
2017-10-26T23:48:35.368Z,17.90
2017-10-26T23:51:45.354Z,22.73
2017-10-26T23:54:56.088Z,24.30
2017-10-26T23:58:06.337Z,23.40
